Latest Weather Observations for Blackwater Airport

IDQ60801

Issued at 1:02 pm EST Saturday 30 July 2016 (issued every 30 minutes, with the page automatically refreshed every 10 minutes)

About weather observations | Map of weather stations | Latest weather observations for QLD | Other Formats
Station Details ID: 035134 Name: BLACKWATER AIRPORT Lat: -23.60 Lon: 148.81 Height: 192.95 m
Data from the previous 72 hours. | See also: Recent months at Blackwater Airport
Date/Time
EST
Temp
°C
App
Temp
°C
Dew
Point
°C
Rel
Hum
%
Delta-T
°C
Wind Press
QNH
hPa
Press
MSL
hPa
Rain since
9am
mm
Dir  Spd
km/h
Gust
km/h
Spd
kts
Gust
kts
30/01:00pm 22.2 18.7 7.2 38 7.8 E 15 20 8 11 1018.9 1018.7 0.0
30/12:30pm 22.0 19.7 7.4 39 7.6 SE 9 13 5 7 1019.6 1019.3 0.0
30/12:00pm 21.7 19.9 7.9 41 7.2 NE 7 11 4 6 1020.1 1019.8 0.0
30/11:30am 20.8 18.7 6.7 40 7.2 WNW 7 17 4 9 1020.8 1020.5 0.0
30/11:00am 20.4 17.6 5.2 37 7.5 ENE 9 15 5 8 1021.3 1021.0 0.0
30/10:30am 20.8 18.3 6.7 40 7.2 ENE 9 13 5 7 1021.8 1021.5 0.0
30/10:00am 19.8 17.5 5.8 40 7.0 E 7 13 4 7 1022.1 1021.8 0.0
30/09:30am 18.9 16.7 6.1 43 6.4 ESE 7 11 4 6 1022.1 1021.8 0.0
30/09:00am 17.4 15.9 5.0 44 6.0 ESE 2 7 1 4 1021.9 1021.6 0.0
30/08:30am 15.4 14.1 7.7 60 3.9 NE 4 9 2 5 1021.9 1021.6 0.0
30/08:00am 14.4 11.0 6.0 57 4.0 S 13 20 7 11 1021.5 1021.2 0.0
30/07:30am 10.8 7.4 6.0 72 2.3 SSW 13 15 7 8 1021.3 1021.0 0.0
30/07:00am 8.3 4.3 4.9 79 1.5 SSW 15 19 8 10 1020.9 1020.6 0.0
30/06:30am 8.1 3.7 4.7 79 1.5 S 17 19 9 10 1020.6 1020.3 0.0
30/06:00am 8.7 4.4 5.3 79 1.5 SSW 17 20 9 11 1020.5 1020.2 0.0
30/05:30am 8.9 5.3 5.1 77 1.7 S 13 15 7 8 1020.1 1019.8 0.0
30/05:00am 8.7 5.6 5.6 81 1.4 S 11 13 6 7 1020.0 1019.7 0.0
30/04:30am 9.0 5.9 5.7 80 1.5 SSE 11 15 6 8 1019.7 1019.4 0.0
30/04:00am 9.6 6.6 6.0 78 1.7 SSE 11 13 6 7 1019.9 1019.6 0.0
30/03:30am 11.2 7.5 6.5 73 2.2 SSE 15 15 8 8 1019.9 1019.6 0.0
30/03:00am 10.1 6.8 6.6 79 1.7 SSE 13 15 7 8 1020.0 1019.7 0.0
30/02:30am 10.0 6.8 6.9 81 1.5 S 13 15 7 8 1020.2 1019.9 0.0
30/02:00am 10.8 8.6 7.7 81 1.5 S 9 11 5 6 1020.4 1020.1 0.0
30/01:30am 10.5 7.7 6.8 78 1.8 S 11 13 6 7 1020.7 1020.4 0.0
30/01:00am 10.4 7.9 6.7 78 1.8 SE 9 11 5 6 1020.9 1020.6 0.0
30/12:30am 10.4 8.2 6.4 76 1.9 SE 7 9 4 5 1021.1 1020.8 0.0
30/12:00am 12.0 9.2 7.1 72 2.4 ESE 11 15 6 8 1021.3 1021.0 0.0
 
Date/Time
EST
Temp
°C
App
Temp
°C
Dew
Point
°C
Rel
Hum
%
Delta-T
°C
Wind Press
QNH
hPa
Press
MSL
hPa
Rain since
9am
mm
Dir  Spd
km/h
Gust
km/h
Spd
kts
Gust
kts
29/11:30pm 10.8 7.6 6.7 76 2.0 SSE 13 13 7 7 1021.2 1020.9 0.0
29/11:00pm 10.4 7.9 6.4 76 1.9 S 9 11 5 6 1021.3 1021.0 0.0
29/10:30pm 10.0 6.8 6.7 80 1.6 S 13 15 7 8 1021.4 1021.1 0.0
29/10:00pm 9.4 7.3 5.9 79 1.6 SSW 6 11 3 6 1021.5 1021.2 0.0
29/09:30pm 10.4 6.3 6.4 76 1.9 SSW 17 19 9 10 1021.3 1021.0 0.0
29/09:00pm 10.6 6.6 6.6 76 1.9 S 17 19 9 10 1021.4 1021.1 0.0
29/08:30pm 11.1 8.2 6.5 73 2.2 S 11 13 6 7 1021.2 1020.9 0.0
29/08:00pm 11.9 9.9 6.2 68 2.7 SSE 6 9 3 5 1021.0 1020.7 0.0
29/07:30pm 14.5 12.4 6.8 60 3.8 ENE 7 9 4 5 1020.9 1020.6 0.0
29/07:00pm 14.5 11.5 6.1 57 4.1 NE 11 13 6 7 1020.5 1020.2 0.0
29/06:30pm 15.1 12.4 5.6 53 4.6 NE 9 9 5 5 1020.3 1020.0 0.0
29/06:00pm 16.5 13.7 5.2 47 5.4 NE 9 9 5 5 1020.1 1019.8 0.0
29/05:30pm 19.0 16.6 5.1 40 6.8 NE 7 9 4 5 1019.8 1019.5 0.0
29/05:00pm 20.9 17.9 4.0 33 8.2 NNE 9 9 5 5 1019.6 1019.3 0.0
29/04:30pm 21.6 18.4 3.3 30 8.8 NE 9 13 5 7 1019.4 1019.2 0.0
29/04:00pm 22.1 19.2 2.8 28 9.2 N 7 13 4 7 1019.4 1019.2 0.0
29/03:30pm 22.7 20.1 4.2 30 9.1 N 7 15 4 8 1019.3 1019.1 0.0
29/03:00pm 21.9 19.1 3.1 29 9.0 ESE 7 13 4 7 1019.4 1019.2 0.0
29/02:30pm 22.2 19.0 3.3 29 9.1 NE 9 17 5 9 1019.9 1019.6 0.0
29/02:00pm 21.7 18.6 3.4 30 8.8 NE 9 15 5 8 1020.1 1019.8 0.0
29/01:30pm 22.3 18.8 5.3 33 8.6 NNE 13 20 7 11 1020.5 1020.2 0.0
29/01:00pm 20.9 18.0 4.5 34 8.0 E 9 17 5 9 1020.9 1020.6 0.0
29/12:30pm 21.6 18.4 5.1 34 8.2 NE 11 22 6 12 1021.5 1021.2 0.0
29/12:00pm 20.0 16.0 2.8 32 8.1 E 13 20 7 11 1022.3 1022.0 0.0
29/11:30am 20.4 16.0 2.7 31 8.4 E 15 24 8 13 1022.7 1022.5 0.0
29/11:00am 20.3 16.4 3.5 33 8.0 E 13 24 7 13 1023.1 1022.9 0.0
29/10:30am 19.2 16.1 3.4 35 7.5 ESE 9 13 5 7 1023.4 1023.2 0.0
29/10:00am 18.2 14.4 3.7 38 6.8 SE 13 19 7 10 1023.4 1023.2 0.0
29/09:30am 17.5 14.1 4.1 41 6.4 ESE 11 17 6 9 1023.7 1023.5 0.0
29/09:00am 16.5 12.1 4.9 46 5.5 SSE 17 24 9 13 1023.5 1023.3 0.0
29/08:30am 15.1 10.3 4.8 50 4.9 SE 19 24 10 13 1023.4 1023.2 0.0
29/08:00am 13.3 8.5 4.7 56 4.0 SSE 19 22 10 12 1023.3 1023.1 0.0
29/07:30am 10.6 6.9 4.7 67 2.7 S 13 17 7 9 1023.3 1023.1 0.0
29/07:00am 10.9 6.1 4.4 64 2.9 SSE 19 22 10 12 1023.3 1023.1 0.0
29/06:30am 8.7 4.9 4.1 73 2.0 S 13 19 7 10 1023.0 1022.8 0.0
29/06:00am 9.2 4.3 4.0 70 2.3 S 19 20 10 11 1022.9 1022.7 0.0
29/05:30am 8.2 3.3 4.0 75 1.8 S 19 20 10 11 1022.6 1022.3 0.0
29/05:00am 7.7 2.7 3.7 76 1.7 S 19 20 10 11 1022.3 1022.0 0.0
29/04:30am 8.0 3.0 3.8 75 1.8 S 19 20 10 11 1022.3 1022.0 0.0
29/04:00am 8.2 3.3 4.0 75 1.8 S 19 20 10 11 1022.0 1021.7 0.0
29/03:30am 9.0 4.0 3.8 70 2.3 S 19 20 10 11 1021.8 1021.5 0.0
29/03:00am 9.3 4.8 4.1 70 2.3 S 17 19 9 10 1021.9 1021.6 0.0
29/02:30am 8.3 4.1 3.8 73 2.0 S 15 17 8 9 1021.9 1021.6 0.0
29/02:00am 8.8 3.9 4.0 72 2.1 S 19 20 10 11 1022.2 1021.9 0.0
29/01:30am 8.6 4.7 3.6 71 2.2 S 13 17 7 9 1022.4 1022.1 0.0
29/01:00am 8.3 4.1 3.8 73 2.0 S 15 17 8 9 1022.6 1022.3 0.0
29/12:30am 8.5 4.6 3.6 71 2.1 SSE 13 17 7 9 1022.8 1022.6 0.0
29/12:00am 9.9 5.8 4.3 68 2.5 SSE 15 17 8 9 1022.9 1022.7 0.0
 
Date/Time
EST
Temp
°C
App
Temp
°C
Dew
Point
°C
Rel
Hum
%
Delta-T
°C
Wind Press
QNH
hPa
Press
MSL
hPa
Rain since
9am
mm
Dir  Spd
km/h
Gust
km/h
Spd
kts
Gust
kts
28/11:30pm 10.6 6.9 4.3 65 2.8 SSE 13 15 7 8 1023.2 1023.0 0.0
28/11:00pm 10.8 6.8 4.7 66 2.8 SSE 15 19 8 10 1023.3 1023.1 0.0
28/10:30pm 10.8 7.2 4.9 67 2.7 SSE 13 15 7 8 1023.3 1023.1 0.0
28/10:00pm 9.8 6.5 4.6 70 2.3 SSE 11 13 6 7 1023.4 1023.2 0.0
28/09:30pm 11.7 8.7 4.2 60 3.4 SE 9 13 5 7 1023.4 1023.2 0.0
28/09:00pm 13.2 10.0 4.9 57 3.9 ESE 11 13 6 7 1023.4 1023.2 0.0
28/08:30pm 13.5 9.6 5.2 57 3.9 ESE 15 15 8 8 1023.4 1023.2 0.0
28/08:00pm 11.9 8.7 5.1 63 3.1 SE 11 15 6 8 1023.4 1023.2 0.0
28/07:30pm 12.7 9.4 4.4 57 3.8 SE 11 13 6 7 1023.3 1023.1 0.0
28/07:00pm 14.0 10.3 4.6 53 4.4 ESE 13 15 7 8 1023.0 1022.8 0.0
28/06:30pm 15.3 10.8 4.4 48 5.1 SSE 17 19 9 10 1022.6 1022.3 0.0
28/06:00pm 15.9 11.7 4.0 45 5.5 SSE 15 17 8 9 1022.2 1021.9 0.0
28/05:30pm 17.9 13.6 3.4 38 6.8 SSE 15 20 8 11 1022.0 1021.7 0.0
28/05:00pm 19.8 15.5 3.5 34 7.8 SSE 15 20 8 11 1021.7 1021.4 0.0
28/04:30pm 20.6 17.4 2.9 31 8.4 SSE 9 15 5 8 1021.4 1021.1 0.0
28/04:00pm 20.9 17.0 3.2 31 8.4 SSE 13 19 7 10 1021.2 1020.9 0.0
28/03:30pm 21.0 17.4 2.8 30 8.6 S 11 19 6 10 1021.1 1020.8 0.0
28/03:00pm 20.7 17.2 3.4 32 8.3 SSE 11 20 6 11 1021.1 1020.8 0.0
28/02:30pm 20.8 17.4 4.0 33 8.2 SE 11 17 6 9 1021.3 1021.0 0.0
28/02:00pm 20.1 16.5 2.9 32 8.1 SE 11 19 6 10 1021.6 1021.3 0.0
28/01:30pm 19.6 15.6 2.9 33 7.9 SSE 13 24 7 13 1022.0 1021.7 0.0
28/01:00pm 19.5 15.9 2.8 33 7.8 ENE 11 19 6 10 1022.5 1022.2 0.0
28/12:30pm 19.1 14.7 2.5 33 7.7 SE 15 26 8 14 1023.0 1022.8 0.0
28/12:00pm 18.8 14.0 2.6 34 7.5 SSE 17 28 9 15 1023.7 1023.5 0.0
28/11:30am 18.6 13.4 3.3 36 7.2 S 20 28 11 15 1024.0 1023.8 0.0
28/11:00am 18.6 13.0 3.6 37 7.1 SSE 22 39 12 21 1024.5 1024.3 0.0
28/10:30am 17.8 10.8 2.2 35 7.1 SSE 28 39 15 21 1024.7 1024.5 0.0
28/10:00am 18.1 11.0 3.6 38 6.8 SSE 30 39 16 21 1024.8 1024.6 0.0
28/09:30am 17.4 10.3 3.3 39 6.6 SSE 30 44 16 24 1024.8 1024.6 0.0
28/09:00am 16.1 9.7 3.2 42 5.9 SSE 26 39 14 21 1024.8 1024.6 0.0
28/08:30am 15.4 9.5 3.9 46 5.4 SSE 24 32 13 17 1024.6 1024.4 0.0
28/08:00am 13.8 9.7 4.1 52 4.5 SSE 15 24 8 13 1024.6 1024.4 0.0
28/07:30am 10.3 7.1 4.9 69 2.5 S 11 13 6 7 1024.2 1024.0 0.0
28/07:00am 8.4 4.6 3.7 72 2.0 S 13 15 7 8 1023.9 1023.7 0.0
28/06:30am 9.0 4.4 3.6 69 2.4 S 17 22 9 12 1023.6 1023.4 0.0
28/06:00am 10.0 5.4 3.5 64 2.9 S 17 19 9 10 1023.3 1023.1 0.0
28/05:30am 12.1 7.0 3.3 55 3.9 S 19 24 10 13 1022.9 1022.7 0.0
28/05:00am 12.7 7.9 4.4 57 3.8 SSE 19 26 10 14 1022.6 1022.3 0.0
28/04:30am 10.5 6.0 4.4 66 2.8 SSE 17 20 9 11 1022.6 1022.3 0.0
28/04:00am 10.0 5.5 4.2 67 2.6 SSE 17 20 9 11 1022.6 1022.3 0.0
28/03:30am 10.7 6.7 4.8 67 2.7 SSE 15 17 8 9 1022.8 1022.6 0.0
28/03:00am 8.6 4.4 3.6 71 2.2 S 15 19 8 10 1022.8 1022.6 0.0
28/02:30am 8.4 3.2 3.7 72 2.1 SSW 20 20 11 11 1022.7 1022.5 0.0
28/02:00am 9.4 4.2 3.6 67 2.5 S 20 22 11 12 1022.7 1022.5 0.0
28/01:30am 8.9 3.9 3.5 69 2.4 SSW 19 22 10 12 1022.7 1022.5 0.0
28/01:00am 9.8 5.2 3.8 66 2.6 S 17 19 9 10 1022.9 1022.7 0.0
28/12:30am 8.5 4.7 4.1 74 1.9 S 13 17 7 9 1022.8 1022.6 0.0
28/12:00am 8.1 4.7 3.9 75 1.8 SSW 11 13 6 7 1022.7 1022.5 0.0
 
Date/Time
EST
Temp
°C
App
Temp
°C
Dew
Point
°C
Rel
Hum
%
Delta-T
°C
Wind Press
QNH
hPa
Press
MSL
hPa
Rain since
9am
mm
Dir  Spd
km/h
Gust
km/h
Spd
kts
Gust
kts
27/11:30pm 8.8 5.9 4.8 76 1.8 SSW 9 11 5 6 1022.6 1022.3 0.0
27/11:00pm 8.9 6.0 4.5 74 2.0 SSW 9 11 5 6 1022.6 1022.3 0.0
27/10:30pm 9.3 6.1 4.9 74 2.0 SSW 11 11 6 6 1022.8 1022.6 0.0
27/10:00pm 12.0 7.6 4.7 61 3.3 S 17 19 9 10 1022.8 1022.6 0.0
27/09:30pm 11.2 7.6 5.1 66 2.8 S 13 17 7 9 1022.8 1022.6 0.0
27/09:00pm 12.6 9.2 6.0 64 3.1 S 13 17 7 9 1022.6 1022.3 0.0
27/08:30pm 12.9 9.2 6.5 65 3.1 S 15 17 8 9 1022.2 1021.9 0.0
27/08:00pm 13.6 10.4 6.9 64 3.3 SSW 13 15 7 8 1021.8 1021.5 0.0
27/07:30pm 13.9 10.9 7.7 66 3.1 SSW 13 15 7 8 1021.3 1021.0 0.0
27/07:00pm 14.4 11.4 7.7 64 3.3 S 13 15 7 8 1021.1 1020.8 0.0
27/06:30pm 15.2 11.9 8.0 62 3.6 SSW 15 15 8 8 1020.7 1020.4 0.0
27/06:00pm 15.7 12.8 8.0 60 3.9 SSW 13 15 7 8 1020.4 1020.1 0.0
27/05:30pm 17.7 15.0 7.4 51 5.2 SSW 11 15 6 8 1020.2 1019.9 0.0
27/05:00pm 19.3 17.2 8.3 49 5.7 S 9 11 5 6 1019.9 1019.6 0.0
27/04:30pm 20.7 17.4 6.6 40 7.2 SSW 13 17 7 9 1019.6 1019.3 0.0
27/04:00pm 20.6 17.0 6.9 41 7.0 S 15 20 8 11 1019.6 1019.3 0.0
27/03:30pm 21.1 17.0 6.2 38 7.6 SSW 17 22 9 12 1019.3 1019.1 0.0
27/03:00pm 20.6 16.6 6.5 40 7.2 S 17 24 9 13 1019.3 1019.1 0.0
27/02:30pm 20.4 15.5 6.7 41 7.0 SSW 22 28 12 15 1019.6 1019.3 0.0
27/02:00pm 20.9 16.6 7.2 41 7.1 SSW 19 24 10 13 1019.6 1019.3 0.0
27/01:30pm 21.7 18.0 7.9 41 7.3 S 17 26 9 14 1019.7 1019.4 0.0

Other Formats:

Comma delimited format used in spreadsheet applications
http://www.bom.gov.au/fwo/IDQ60801/IDQ60801.94398.axf

JavaScript Object Notation format (JSON) in row-major order
http://www.bom.gov.au/fwo/IDQ60801/IDQ60801.94398.json